createdAt,value
2023-05-03T00:01:09.353Z,99374.88
2023-05-03T00:03:37.818Z,99379.00
2023-05-03T00:06:14.302Z,99372.84
2023-05-03T00:08:41.821Z,99380.09
2023-05-03T00:11:08.760Z,99374.94
2023-05-03T00:13:36.163Z,99373.50
2023-05-03T00:16:02.878Z,99373.63
2023-05-03T00:18:30.632Z,99373.38
2023-05-03T00:20:58.928Z,99382.50
2023-05-03T00:23:26.754Z,99374.09
2023-05-03T00:25:57.104Z,99376.09
2023-05-03T00:28:24.572Z,99372.66
2023-05-03T00:30:52.045Z,99371.91
2023-05-03T00:33:19.076Z,99375.63
2023-05-03T00:35:45.933Z,99368.47
2023-05-03T00:38:14.435Z,99371.31
2023-05-03T00:40:41.305Z,99363.16
2023-05-03T00:43:10.673Z,99365.88
2023-05-03T00:45:37.379Z,99364.03
2023-05-03T00:48:04.448Z,99371.03
2023-05-03T00:50:31.218Z,99370.59
2023-05-03T00:52:58.270Z,99371.72
2023-05-03T00:55:26.320Z,99373.66
2023-05-03T00:57:53.293Z,99369.81
2023-05-03T01:00:20.421Z,99368.88
2023-05-03T01:02:47.538Z,99370.00
2023-05-03T01:05:15.827Z,99371.88
2023-05-03T01:08:01.332Z,99376.28
2023-05-03T01:10:33.736Z,99371.38
2023-05-03T01:13:28.566Z,99375.06
2023-05-03T01:16:26.403Z,99374.22
2023-05-03T01:18:54.940Z,99375.91
2023-05-03T01:21:22.837Z,99371.63
2023-05-03T01:24:09.378Z,99380.75
2023-05-03T01:26:36.261Z,99375.78
2023-05-03T01:29:04.002Z,99374.47
2023-05-03T01:31:37.742Z,99381.75
2023-05-03T01:34:16.949Z,99382.34
2023-05-03T01:36:44.369Z,99380.88
2023-05-03T01:39:16.925Z,99380.75
2023-05-03T01:41:43.675Z,99381.47
2023-05-03T01:44:10.835Z,99378.41
2023-05-03T01:46:44.695Z,99384.25
2023-05-03T01:49:11.946Z,99383.84
2023-05-03T01:51:38.746Z,99383.25
2023-05-03T01:54:06.282Z,99381.44
2023-05-03T01:56:34.547Z,99391.66
2023-05-03T01:59:01.727Z,99388.28
2023-05-03T02:01:28.567Z,99390.94
2023-05-03T02:03:55.781Z,99391.78
2023-05-03T02:06:22.547Z,99391.78
2023-05-03T02:08:49.596Z,99390.09
2023-05-03T02:11:16.270Z,99395.38
2023-05-03T02:13:43.288Z,99388.59
2023-05-03T02:16:10.125Z,99385.16
2023-05-03T02:18:37.481Z,99389.22
2023-05-03T02:21:04.894Z,99386.78
2023-05-03T02:23:31.914Z,99395.16
2023-05-03T02:25:58.684Z,99394.03
2023-05-03T02:28:25.700Z,99396.03
2023-05-03T02:30:52.441Z,99394.31
2023-05-03T02:33:19.618Z,99386.31
2023-05-03T02:35:46.367Z,99393.56
2023-05-03T02:38:13.488Z,99388.72
2023-05-03T02:40:40.220Z,99390.50
2023-05-03T02:43:07.440Z,99391.84
2023-05-03T02:45:36.505Z,99396.81
2023-05-03T02:48:03.913Z,99404.03
2023-05-03T02:50:30.691Z,99397.78
2023-05-03T02:52:57.726Z,99405.06
2023-05-03T02:55:25.152Z,99400.00
2023-05-03T02:57:52.181Z,99398.66
2023-05-03T03:00:19.163Z,99405.22
2023-05-03T03:02:46.568Z,99411.59
2023-05-03T03:05:13.437Z,99408.66
2023-05-03T03:07:40.510Z,99409.16
2023-05-03T03:10:07.862Z,99413.59
2023-05-03T03:12:38.064Z,99413.09
2023-05-03T03:15:05.408Z,99418.25
2023-05-03T03:17:32.586Z,99415.81
2023-05-03T03:19:59.553Z,99420.09
2023-05-03T03:22:26.740Z,99415.34
2023-05-03T03:24:53.546Z,99423.47
2023-05-03T03:27:21.625Z,99419.88
2023-05-03T03:29:48.367Z,99424.44
2023-05-03T03:32:15.550Z,99424.91
2023-05-03T03:34:42.294Z,99420.00
2023-05-03T03:37:09.367Z,99422.00
2023-05-03T03:39:36.197Z,99424.56
2023-05-03T03:42:03.301Z,99422.84
2023-05-03T03:44:30.027Z,99423.97
2023-05-03T03:46:57.048Z,99430.00
2023-05-03T03:49:23.814Z,99434.09
2023-05-03T03:51:50.870Z,99442.13
2023-05-03T03:54:17.544Z,99440.25
2023-05-03T03:56:44.576Z,99442.72
2023-05-03T03:59:11.267Z,99447.53
2023-05-03T04:01:38.423Z,99445.06
2023-05-03T04:04:05.329Z,99450.47
2023-05-03T04:06:33.190Z,99448.75
2023-05-03T04:08:59.888Z,99456.53
2023-05-03T04:11:26.904Z,99455.94
2023-05-03T04:13:53.647Z,99459.72
2023-05-03T04:16:20.731Z,99463.94
2023-05-03T04:18:47.490Z,99468.47
2023-05-03T04:21:14.563Z,99470.59
2023-05-03T04:23:41.316Z,99471.47
2023-05-03T04:26:14.453Z,99475.63
2023-05-03T04:28:46.851Z,99485.03
2023-05-03T04:31:14.732Z,99483.66
2023-05-03T04:33:41.494Z,99492.16
2023-05-03T04:36:09.206Z,99497.34
2023-05-03T04:38:36.125Z,99496.13
2023-05-03T04:41:03.223Z,99497.59
2023-05-03T04:43:29.899Z,99497.22
2023-05-03T04:45:57.129Z,99506.09
2023-05-03T04:48:24.221Z,99510.31
2023-05-03T04:50:52.372Z,99509.28
2023-05-03T04:53:19.162Z,99515.00
2023-05-03T04:55:47.529Z,99515.25
2023-05-03T04:58:14.201Z,99517.59
2023-05-03T05:00:42.001Z,99526.22
2023-05-03T05:03:08.958Z,99518.19
2023-05-03T05:05:36.040Z,99530.78
2023-05-03T05:08:02.829Z,99533.63
2023-05-03T05:10:29.840Z,99534.22
2023-05-03T05:12:56.553Z,99535.22
2023-05-03T05:15:23.691Z,99537.06
2023-05-03T05:17:50.568Z,99538.19
2023-05-03T05:20:18.919Z,99536.81
2023-05-03T05:22:45.993Z,99550.25
2023-05-03T05:25:13.162Z,99549.63
2023-05-03T05:27:39.919Z,99559.03
2023-05-03T05:30:07.683Z,99551.00
2023-05-03T05:32:34.536Z,99556.91
2023-05-03T05:35:01.632Z,99569.34
2023-05-03T05:37:28.624Z,99562.09
2023-05-03T05:39:55.795Z,99561.19
2023-05-03T05:42:22.519Z,99566.91
2023-05-03T05:44:49.592Z,99560.47
2023-05-03T05:47:16.408Z,99564.91
2023-05-03T05:49:43.758Z,99561.19
2023-05-03T05:52:10.549Z,99572.19
2023-05-03T05:54:37.706Z,99575.75
2023-05-03T05:57:04.400Z,99575.03
2023-05-03T05:59:31.572Z,99577.75
2023-05-03T06:02:00.250Z,99591.03
2023-05-03T06:04:27.418Z,99588.19
2023-05-03T06:06:54.441Z,99590.91
2023-05-03T06:09:24.602Z,99585.72
2023-05-03T06:11:52.117Z,99596.22
2023-05-03T06:14:20.736Z,99593.34
2023-05-03T06:16:47.676Z,99598.31
2023-05-03T06:19:14.801Z,99599.66
2023-05-03T06:21:41.500Z,99603.09
2023-05-03T06:24:08.841Z,99604.09
2023-05-03T06:26:35.850Z,99611.25
2023-05-03T06:29:03.291Z,99616.53
2023-05-03T06:31:30.235Z,99613.81
2023-05-03T06:33:57.358Z,99610.00
2023-05-03T06:36:24.108Z,99618.88
2023-05-03T06:38:51.091Z,99623.31
2023-05-03T06:41:17.848Z,99627.97
2023-05-03T06:43:44.920Z,99623.66
2023-05-03T06:46:13.139Z,99618.25
2023-05-03T06:48:40.230Z,99629.31
2023-05-03T06:51:07.204Z,99627.88
2023-05-03T06:53:34.222Z,99625.03
2023-05-03T06:56:00.953Z,99625.69
2023-05-03T06:58:27.956Z,99631.56
2023-05-03T07:00:54.715Z,99625.75
2023-05-03T07:03:21.865Z,99634.56
2023-05-03T07:05:48.965Z,99632.34
2023-05-03T07:08:16.100Z,99629.50
2023-05-03T07:10:42.866Z,99634.28
2023-05-03T07:13:09.902Z,99634.44
2023-05-03T07:15:36.635Z,99638.13
2023-05-03T07:18:03.876Z,99635.06
2023-05-03T07:20:30.753Z,99643.84
2023-05-03T07:22:58.340Z,99640.22
2023-05-03T07:25:25.261Z,99637.44
2023-05-03T07:27:52.509Z,99639.38
2023-05-03T07:30:19.241Z,99640.88
2023-05-03T07:32:46.299Z,99646.44
2023-05-03T07:35:13.026Z,99650.63
2023-05-03T07:37:40.151Z,99649.88
2023-05-03T07:40:07.517Z,99643.94
2023-05-03T07:42:34.547Z,99643.22
2023-05-03T07:45:01.559Z,99646.78
2023-05-03T07:47:28.619Z,99642.72
2023-05-03T07:49:55.459Z,99643.69
2023-05-03T07:52:22.749Z,99644.31
2023-05-03T07:54:49.533Z,99644.94
2023-05-03T07:57:16.601Z,99647.78
2023-05-03T07:59:43.481Z,99651.72
2023-05-03T08:02:10.721Z,99642.59
2023-05-03T08:04:37.714Z,99642.50
2023-05-03T08:07:04.941Z,99650.75
2023-05-03T08:09:31.686Z,99649.63
2023-05-03T08:11:58.726Z,99650.25
2023-05-03T08:14:25.816Z,99648.16
2023-05-03T08:16:52.827Z,99641.63
2023-05-03T08:19:19.663Z,99642.47
2023-05-03T08:21:50.022Z,99645.69
2023-05-03T08:24:16.804Z,99642.22
2023-05-03T08:26:45.426Z,99637.81
2023-05-03T08:29:12.232Z,99641.25
2023-05-03T08:31:39.818Z,99642.84
2023-05-03T08:34:07.993Z,99644.84
2023-05-03T08:36:35.843Z,99643.22
2023-05-03T08:39:03.900Z,99649.53
2023-05-03T08:41:31.223Z,99651.13
2023-05-03T08:43:58.694Z,99650.25
2023-05-03T08:46:28.514Z,99649.97
2023-05-03T08:48:55.578Z,99645.06
2023-05-03T08:51:23.303Z,99651.34
2023-05-03T08:53:50.398Z,99645.44
2023-05-03T08:56:25.852Z,99653.09
2023-05-03T08:58:53.357Z,99648.75
2023-05-03T09:01:20.836Z,99657.03
2023-05-03T09:03:51.910Z,99659.72
2023-05-03T09:06:25.957Z,99659.59
2023-05-03T09:08:53.255Z,99656.16
2023-05-03T09:11:24.188Z,99656.63
2023-05-03T09:13:52.428Z,99655.03
2023-05-03T09:16:29.642Z,99650.47
2023-05-03T09:18:57.780Z,99654.88
2023-05-03T09:21:24.819Z,99654.63
2023-05-03T09:23:51.773Z,99666.09
2023-05-03T09:26:40.926Z,99660.63
2023-05-03T09:29:08.309Z,99661.69
2023-05-03T09:31:36.444Z,99665.91
2023-05-03T09:34:05.048Z,99667.22
2023-05-03T09:36:46.745Z,99665.50
2023-05-03T09:39:17.337Z,99668.47
2023-05-03T09:41:44.348Z,99664.28
2023-05-03T09:44:11.280Z,99665.16
2023-05-03T09:46:38.358Z,99663.53
2023-05-03T09:49:05.323Z,99667.94
2023-05-03T09:51:32.543Z,99667.44
2023-05-03T09:53:59.374Z,99667.19
2023-05-03T09:56:26.886Z,99670.03
2023-05-03T09:58:56.798Z,99667.44
2023-05-03T10:01:24.360Z,99668.88
2023-05-03T10:03:51.697Z,99663.19
2023-05-03T10:06:32.018Z,99666.78
2023-05-03T10:09:12.301Z,99675.56
2023-05-03T10:11:39.470Z,99672.84
2023-05-03T10:14:07.367Z,99671.81
2023-05-03T10:16:37.387Z,99671.94
2023-05-03T10:19:23.268Z,99675.13
2023-05-03T10:22:07.050Z,99673.16
2023-05-03T10:24:38.053Z,99666.97
2023-05-03T10:27:08.624Z,99663.88
2023-05-03T10:29:36.032Z,99663.50
2023-05-03T10:32:06.378Z,99669.09
2023-05-03T10:34:34.328Z,99660.78
2023-05-03T10:37:19.282Z,99668.69
2023-05-03T10:39:46.716Z,99664.09
2023-05-03T10:42:13.811Z,99654.84
2023-05-03T10:44:50.170Z,99659.25
2023-05-03T10:47:18.560Z,99649.09
2023-05-03T10:49:45.613Z,99657.34
2023-05-03T10:52:43.472Z,99652.91
2023-05-03T10:55:13.884Z,99660.25
2023-05-03T10:57:42.797Z,99660.97
2023-05-03T11:00:22.691Z,99652.28
2023-05-03T11:03:02.005Z,99661.16
2023-05-03T11:05:29.318Z,99659.91
2023-05-03T11:08:19.146Z,99662.97
2023-05-03T11:10:46.756Z,99659.53
2023-05-03T11:13:13.928Z,99655.69
2023-05-03T11:15:40.756Z,99666.44
2023-05-03T11:18:08.413Z,99657.59
2023-05-03T11:20:36.045Z,99652.00
2023-05-03T11:23:03.952Z,99660.22
2023-05-03T11:25:30.999Z,99655.78
2023-05-03T11:27:58.175Z,99654.88
2023-05-03T11:30:24.968Z,99658.75
2023-05-03T11:32:52.337Z,99658.06
2023-05-03T11:35:19.857Z,99651.59
2023-05-03T11:37:47.463Z,99655.91
2023-05-03T11:40:16.839Z,99659.91
2023-05-03T11:42:54.818Z,99655.78
2023-05-03T11:45:25.873Z,99652.94
2023-05-03T11:47:53.092Z,99657.53
2023-05-03T11:50:26.783Z,99652.09
2023-05-03T11:52:53.850Z,99651.94
2023-05-03T11:55:21.618Z,99653.34
2023-05-03T11:57:48.648Z,99646.63
2023-05-03T12:00:17.596Z,99644.47
2023-05-03T12:02:47.991Z,99639.59
2023-05-03T12:05:14.986Z,99648.19
2023-05-03T12:07:43.041Z,99651.66
2023-05-03T12:10:21.564Z,99643.34
2023-05-03T12:12:57.585Z,99641.91
2023-05-03T12:15:30.282Z,99642.34
2023-05-03T12:18:00.082Z,99642.63
2023-05-03T12:23:04.165Z,99638.59
2023-05-03T12:25:33.953Z,99640.34
2023-05-03T12:28:17.894Z,99634.16
2023-05-03T12:30:46.475Z,99631.59
2023-05-03T12:33:15.971Z,99628.56
2023-05-03T12:35:46.685Z,99624.16
2023-05-03T12:38:16.537Z,99628.72
2023-05-03T12:40:45.540Z,99623.66
2023-05-03T12:43:12.893Z,99624.00
2023-05-03T12:45:40.874Z,99620.53
2023-05-03T12:48:09.136Z,99617.94
2023-05-03T12:50:38.883Z,99617.22
2023-05-03T12:53:09.493Z,99628.56
2023-05-03T12:55:43.252Z,99612.34
2023-05-03T13:01:02.942Z,99613.66
2023-05-03T13:03:33.116Z,99615.19
2023-05-03T13:06:01.110Z,99607.28
2023-05-03T13:08:34.860Z,99606.84
2023-05-03T13:11:02.458Z,99604.97
2023-05-03T13:13:29.752Z,99598.22
2023-05-03T13:15:56.577Z,99599.75
2023-05-03T13:18:23.768Z,99597.44
2023-05-03T13:20:51.775Z,99596.31
2023-05-03T13:23:18.864Z,99602.72
2023-05-03T13:25:46.404Z,99588.06
2023-05-03T13:28:13.498Z,99590.19
2023-05-03T13:30:40.215Z,99588.16
2023-05-03T13:33:08.292Z,99580.69
2023-05-03T13:35:35.056Z,99588.59
2023-05-03T13:38:02.382Z,99583.84
2023-05-03T13:40:29.315Z,99580.47
2023-05-03T13:42:56.361Z,99584.38
2023-05-03T13:45:23.144Z,99582.34
2023-05-03T13:50:19.877Z,99583.38
2023-05-03T13:52:46.926Z,99578.78
2023-05-03T13:55:13.713Z,99584.66
2023-05-03T13:57:41.057Z,99583.03
2023-05-03T14:00:08.679Z,99569.69
2023-05-03T14:02:35.880Z,99572.41
2023-05-03T14:05:03.429Z,99569.53
2023-05-03T14:07:30.595Z,99572.25
2023-05-03T14:09:57.706Z,99567.34
2023-05-03T14:12:26.537Z,99567.75
2023-05-03T14:14:54.073Z,99565.00
2023-05-03T14:17:21.711Z,99560.28
2023-05-03T14:19:48.632Z,99560.28
2023-05-03T14:22:16.004Z,99569.31
2023-05-03T14:24:44.338Z,99568.47
2023-05-03T14:27:12.930Z,99570.47
2023-05-03T14:29:39.878Z,99571.34
2023-05-03T14:32:06.953Z,99569.63
2023-05-03T14:34:33.761Z,99571.81
2023-05-03T14:37:00.870Z,99572.34
2023-05-03T14:39:27.935Z,99576.66
2023-05-03T14:41:56.474Z,99571.06
2023-05-03T14:44:23.434Z,99575.19
2023-05-03T14:46:51.122Z,99578.78
2023-05-03T14:49:18.230Z,99583.38
2023-05-03T14:51:45.909Z,99578.63
2023-05-03T14:54:13.111Z,99577.63
2023-05-03T14:56:40.161Z,99583.09
2023-05-03T14:59:07.162Z,99578.63
2023-05-03T15:01:34.295Z,99577.78
2023-05-03T15:04:01.206Z,99584.81
2023-05-03T15:06:30.880Z,99584.09
2023-05-03T15:08:59.631Z,99582.09
2023-05-03T15:11:27.927Z,99583.78
2023-05-03T15:13:54.876Z,99578.63
2023-05-03T15:16:22.053Z,99576.91
2023-05-03T15:18:48.963Z,99576.03
2023-05-03T15:21:18.876Z,99577.63
2023-05-03T15:23:47.208Z,99574.88
2023-05-03T15:26:14.294Z,99577.63
2023-05-03T15:28:41.141Z,99581.50
2023-05-03T15:31:08.276Z,99582.38
2023-05-03T15:33:44.674Z,99583.38
2023-05-03T15:36:12.560Z,99580.66
2023-05-03T15:38:41.161Z,99578.91
2023-05-03T15:41:08.408Z,99584.56
2023-05-03T15:43:35.252Z,99591.03
2023-05-03T15:46:02.436Z,99585.56
2023-05-03T15:48:29.234Z,99577.22
2023-05-03T15:50:56.251Z,99582.53
2023-05-03T15:53:22.971Z,99590.34
2023-05-03T15:55:50.046Z,99590.47
2023-05-03T15:58:18.926Z,99580.09
2023-05-03T16:00:46.893Z,99582.69
2023-05-03T16:03:13.705Z,99580.97
2023-05-03T16:05:40.846Z,99579.97
2023-05-03T16:08:08.275Z,99591.34
2023-05-03T16:10:35.406Z,99580.56
2023-05-03T16:13:02.446Z,99591.34
2023-05-03T16:15:29.829Z,99581.41
2023-05-03T16:17:56.966Z,99575.09
2023-05-03T16:20:24.074Z,99577.81
2023-05-03T16:22:52.649Z,99580.31
2023-05-03T16:25:19.949Z,99587.66
2023-05-03T16:27:46.757Z,99575.69
2023-05-03T16:30:14.459Z,99575.16
2023-05-03T16:32:42.822Z,99574.44
2023-05-03T16:35:10.105Z,99573.75
2023-05-03T16:37:37.782Z,99570.16
2023-05-03T16:40:10.610Z,99572.00
2023-05-03T16:42:41.548Z,99573.16
2023-05-03T16:45:10.625Z,99575.50
2023-05-03T16:47:37.978Z,99579.91
2023-05-03T16:50:08.653Z,99572.91
2023-05-03T16:52:42.640Z,99582.09
2023-05-03T16:55:10.927Z,99574.94
2023-05-03T16:57:38.188Z,99573.34
2023-05-03T17:00:09.311Z,99575.38
2023-05-03T17:02:37.479Z,99578.25
2023-05-03T17:05:08.276Z,99573.41
2023-05-03T17:07:35.709Z,99573.66
2023-05-03T17:10:03.593Z,99572.66
2023-05-03T17:12:31.178Z,99582.88
2023-05-03T17:14:58.437Z,99574.25
2023-05-03T17:17:25.265Z,99582.63
2023-05-03T17:19:52.685Z,99583.06
2023-05-03T17:22:20.229Z,99581.31
2023-05-03T17:24:47.372Z,99591.41
2023-05-03T17:27:15.417Z,99593.00
2023-05-03T17:29:42.965Z,99587.16
2023-05-03T17:32:09.780Z,99591.88
2023-05-03T17:34:36.920Z,99591.88
2023-05-03T17:37:03.774Z,99593.47
2023-05-03T17:39:30.930Z,99596.06
2023-05-03T17:41:57.970Z,99597.69
2023-05-03T17:44:26.292Z,99600.53
2023-05-03T17:46:53.453Z,99603.56
2023-05-03T17:49:20.612Z,99603.84
2023-05-03T17:51:47.498Z,99600.28
2023-05-03T17:54:14.679Z,99601.41
2023-05-03T17:56:43.597Z,99601.72
2023-05-03T17:59:12.133Z,99603.72
2023-05-03T18:01:39.099Z,99604.91
2023-05-03T18:04:06.252Z,99605.03
2023-05-03T18:06:33.155Z,99617.53
2023-05-03T18:09:01.357Z,99612.94
2023-05-03T18:11:28.172Z,99607.03
2023-05-03T18:13:55.302Z,99614.34
2023-05-03T18:16:23.634Z,99616.34
2023-05-03T18:18:50.837Z,99614.63
2023-05-03T18:21:18.649Z,99611.91
2023-05-03T18:23:46.133Z,99613.22
2023-05-03T18:26:13.051Z,99614.34
2023-05-03T18:28:40.256Z,99611.78
2023-05-03T18:31:07.078Z,99613.06
2023-05-03T18:33:40.052Z,99616.06
2023-05-03T18:36:11.829Z,99610.63
2023-05-03T18:38:41.933Z,99615.78
2023-05-03T18:41:15.900Z,99620.09
2023-05-03T18:43:43.745Z,99621.84
2023-05-03T18:46:10.891Z,99616.53
2023-05-03T18:48:38.753Z,99623.66
2023-05-03T18:51:05.739Z,99624.41
2023-05-03T18:53:34.359Z,99620.38
2023-05-03T18:56:05.348Z,99625.25
2023-05-03T18:58:32.622Z,99622.53
2023-05-03T19:01:00.586Z,99611.91
2023-05-03T19:03:29.653Z,99617.50
2023-05-03T19:06:10.015Z,99625.53
2023-05-03T19:08:38.690Z,99623.94
2023-05-03T19:11:09.716Z,99620.50
2023-05-03T19:13:37.083Z,99626.94
2023-05-03T19:16:06.202Z,99619.94
2023-05-03T19:18:33.418Z,99621.34
2023-05-03T19:21:00.298Z,99626.34
2023-05-03T19:23:27.573Z,99621.63
2023-05-03T19:25:54.490Z,99625.00
2023-05-03T19:28:22.271Z,99626.19
2023-05-03T19:30:51.882Z,99618.69
2023-05-03T19:33:19.619Z,99625.56
2023-05-03T19:35:47.732Z,99630.31
2023-05-03T19:38:17.482Z,99626.56
2023-05-03T19:40:56.815Z,99625.81
2023-05-03T19:43:23.921Z,99626.09
2023-05-03T19:45:51.454Z,99626.38
2023-05-03T19:48:19.682Z,99623.66
2023-05-03T19:50:47.784Z,99619.75
2023-05-03T19:53:14.983Z,99617.31
2023-05-03T19:55:41.894Z,99615.72
2023-05-03T19:58:10.368Z,99609.56
2023-05-03T20:00:37.169Z,99611.97
2023-05-03T20:03:05.423Z,99616.81
2023-05-03T20:05:32.320Z,99621.53
2023-05-03T20:07:59.445Z,99624.53
2023-05-03T20:10:27.314Z,99624.66
2023-05-03T20:12:54.527Z,99623.47
2023-05-03T20:15:21.407Z,99621.03
2023-05-03T20:17:48.583Z,99621.69
2023-05-03T20:20:16.472Z,99619.97
2023-05-03T20:22:43.629Z,99625.09
2023-05-03T20:25:10.507Z,99622.53
2023-05-03T20:27:37.687Z,99619.94
2023-05-03T20:30:06.082Z,99624.44
2023-05-03T20:32:36.382Z,99623.31
2023-05-03T20:35:07.158Z,99626.44
2023-05-03T20:37:35.804Z,99618.16
2023-05-03T20:40:03.493Z,99616.59
2023-05-03T20:42:30.805Z,99623.69
2023-05-03T20:44:57.629Z,99617.50
2023-05-03T20:47:24.878Z,99621.22
2023-05-03T20:49:51.685Z,99621.75
2023-05-03T20:52:18.835Z,99616.44
2023-05-03T20:54:46.567Z,99613.13
2023-05-03T20:57:13.872Z,99615.38
2023-05-03T20:59:41.764Z,99616.91
2023-05-03T21:02:08.902Z,99621.56
2023-05-03T21:04:36.513Z,99620.72
2023-05-03T21:07:03.762Z,99622.38
2023-05-03T21:09:31.013Z,99622.88
2023-05-03T21:11:58.152Z,99614.50
2023-05-03T21:14:25.575Z,99617.84
2023-05-03T21:16:52.769Z,99614.38
2023-05-03T21:19:19.625Z,99614.03
2023-05-03T21:21:46.711Z,99611.72
2023-05-03T21:24:13.483Z,99608.50
2023-05-03T21:26:40.544Z,99606.44
2023-05-03T21:29:07.354Z,99609.88
2023-05-03T21:31:34.536Z,99606.53
2023-05-03T21:34:03.219Z,99617.66
2023-05-03T21:36:30.477Z,99620.00
2023-05-03T21:38:57.994Z,99612.75
2023-05-03T21:41:25.039Z,99602.25
2023-05-03T21:43:51.776Z,99610.88
2023-05-03T21:46:18.957Z,99604.97
2023-05-03T21:48:45.770Z,99614.25
2023-05-03T21:51:22.055Z,99614.38
2023-05-03T21:53:49.215Z,99608.44
2023-05-03T21:56:16.564Z,99608.94
2023-05-03T21:58:44.498Z,99618.69
2023-05-03T22:01:11.864Z,99609.44
2023-05-03T22:03:40.070Z,99613.75
2023-05-03T22:06:08.464Z,99618.56
2023-05-03T22:08:35.246Z,99619.31
2023-05-03T22:11:06.977Z,99621.41
2023-05-03T22:13:34.516Z,99617.31
2023-05-03T22:16:06.378Z,99617.59
2023-05-03T22:18:33.529Z,99621.13
2023-05-03T22:21:03.855Z,99614.97
2023-05-03T22:23:31.055Z,99622.25
2023-05-03T22:25:58.516Z,99615.34
2023-05-03T22:28:25.289Z,99618.41
2023-05-03T22:30:52.384Z,99618.66
2023-05-03T22:33:19.100Z,99614.34
2023-05-03T22:35:46.475Z,99615.94
2023-05-03T22:38:13.226Z,99610.63
2023-05-03T22:40:40.228Z,99612.72
2023-05-03T22:43:07.164Z,99615.53
2023-05-03T22:45:34.534Z,99610.44
2023-05-03T22:48:01.325Z,99607.34
2023-05-03T22:50:28.357Z,99617.69
2023-05-03T22:52:55.109Z,99608.69
2023-05-03T22:55:22.126Z,99611.53
2023-05-03T22:57:48.834Z,99605.47
2023-05-03T23:00:17.650Z,99611.81
2023-05-03T23:02:44.504Z,99607.16
2023-05-03T23:05:12.152Z,99605.03
2023-05-03T23:07:38.929Z,99614.53
2023-05-03T23:10:07.432Z,99595.28
2023-05-03T23:12:34.521Z,99608.22
2023-05-03T23:15:01.601Z,99603.78
2023-05-03T23:17:28.447Z,99598.38
2023-05-03T23:19:55.515Z,99600.56
2023-05-03T23:22:22.259Z,99602.34
2023-05-03T23:24:49.258Z,99611.22
2023-05-03T23:27:16.012Z,99607.13
2023-05-03T23:29:43.426Z,99599.47
2023-05-03T23:32:10.451Z,99601.94
2023-05-03T23:34:37.818Z,99598.72
2023-05-03T23:37:04.538Z,99600.78
2023-05-03T23:39:31.632Z,99602.97
2023-05-03T23:41:58.882Z,99602.13
2023-05-03T23:44:34.694Z,99607.97
2023-05-03T23:47:09.105Z,99600.50
2023-05-03T23:49:36.210Z,99604.75
2023-05-03T23:52:03.210Z,99594.25
2023-05-03T23:54:30.248Z,99591.81
2023-05-03T23:56:56.952Z,99589.78
2023-05-03T23:59:24.036Z,99594.31
